Time;durP1;ratioP1;P1;durP2;ratioP2;P2;SDS_P1;SDS_P2;PMS_P1;PMS_P2;Temp;Humidity;BMP_temperature;BMP_pressure;BME280_temperature;BME280_humidity;BME280_pressure;Samples;Min_cycle;Max_cycle;Signal;HPM_P1;HPM_P2
2022/10/23 00:01:13;;;;;;;23.50;21.10;;;;;;;10.97;71.68;95419.91;5098524;28;20187;-71
2022/10/23 00:03:40;;;;;;;25.35;21.20;;;;;;;10.99;72.29;95412.06;5116239;28;20175;-72
2022/10/23 00:06:07;;;;;;;23.95;21.42;;;;;;;10.93;72.43;95415.41;5116127;28;20187;-72
2022/10/23 00:08:34;;;;;;;23.20;20.85;;;;;;;10.86;72.20;95427.03;5098063;28;20208;-72
2022/10/23 00:11:01;;;;;;;24.92;22.42;;;;;;;10.82;72.32;95406.78;5116088;28;20192;-72
2022/10/23 00:13:28;;;;;;;22.70;20.50;;;;;;;10.76;71.71;95411.75;5115865;28;20203;-71
2022/10/23 00:15:55;;;;;;;24.63;22.08;;;;;;;10.69;72.38;95411.53;5115812;28;20195;-71
2022/10/23 00:18:23;;;;;;;23.98;21.75;;;;;;;10.67;72.58;95410.25;5098001;28;20208;-71
2022/10/23 00:20:50;;;;;;;22.38;20.15;;;;;;;10.68;72.56;95387.06;5115836;28;20188;-71
2022/10/23 00:23:17;;;;;;;22.98;19.65;;;;;;;10.79;72.56;95379.91;5097979;28;20198;-71
2022/10/23 00:25:43;;;;;;;21.90;19.67;;;;;;;10.83;72.45;95394.63;5115803;28;20195;-71
2022/10/23 00:28:10;;;;;;;22.48;20.17;;;;;;;10.79;72.03;95390.94;5115474;28;20195;-71
2022/10/23 00:30:37;;;;;;;22.45;20.17;;;;;;;10.74;72.41;95397.50;5115460;28;20192;-71
2022/10/23 00:33:04;;;;;;;23.38;20.42;;;;;;;10.73;71.82;95411.63;5115643;28;20210;-71
2022/10/23 00:35:32;;;;;;;22.90;20.63;;;;;;;10.70;71.94;95423.34;5097565;28;20203;-71
2022/10/23 00:37:59;;;;;;;22.67;19.98;;;;;;;10.68;72.21;95415.44;5097421;28;20192;-71
2022/10/23 00:40:26;;;;;;;22.50;20.20;;;;;;;10.68;72.40;95409.94;5115652;28;20191;-71
2022/10/23 00:42:52;;;;;;;20.98;18.95;;;;;;;10.71;71.90;95408.41;5097476;28;20592;-71
2022/10/23 00:45:23;;;;;;;21.98;19.77;;;;;;;10.75;72.27;95398.31;5115556;28;20179;-71
2022/10/23 00:47:51;;;;;;;22.58;20.13;;;;;;;10.76;72.13;95397.16;5115320;28;20650;-71
2022/10/23 00:50:18;;;;;;;21.00;18.95;;;;;;;10.79;72.49;95393.72;5097731;28;20192;-71
2022/10/23 00:52:48;;;;;;;20.48;17.83;;;;;;;10.84;72.37;95379.66;5115066;28;20215;-71
2022/10/23 00:55:17;;;;;;;21.23;19.13;;;;;;;10.87;72.06;95386.47;5109507;28;20231;-71
2022/10/23 00:57:45;;;;;;;21.52;18.60;;;;;;;10.83;71.68;95380.81;5135779;28;20179;-71
2022/10/23 01:00:16;;;;;;;21.33;19.17;;;;;;;10.75;71.45;95381.75;5139159;27;20490;-71
2022/10/23 01:02:43;;;;;;;21.35;19.20;;;;;;;10.72;71.67;95386.00;5140325;27;20171;-71
2022/10/23 01:05:09;;;;;;;20.48;18.58;;;;;;;10.71;71.44;95378.88;5121834;27;20194;-71
2022/10/23 01:07:43;;;;;;;20.15;18.15;;;;;;;10.70;71.81;95368.19;5122866;27;20198;-72
2022/10/23 01:10:15;;;;;;;19.67;17.73;;;;;;;10.70;71.90;95377.25;5140131;27;20180;-72
2022/10/23 01:12:45;;;;;;;19.45;17.65;;;;;;;10.70;71.69;95380.03;5139779;27;20210;-71
2022/10/23 01:15:17;;;;;;;19.88;17.73;;;;;;;10.70;71.74;95393.00;5139560;27;20618;-72
2022/10/23 01:17:47;;;;;;;20.13;17.83;;;;;;;10.70;71.76;95402.09;5139699;27;20195;-71
2022/10/23 01:20:39;;;;;;;23.83;21.35;;;;;;;10.70;71.42;95413.13;5122330;27;20514;-71
2022/10/23 01:23:30;;;;;;;24.98;22.27;;;;;;;10.77;71.37;95415.31;5121417;27;20195;-71
2022/10/23 01:26:11;;;;;;;22.92;20.63;;;;;;;10.82;70.47;95407.63;5100366;27;20218;-71
2022/10/23 01:28:45;;;;;;;23.30;20.90;;;;;;;10.86;70.06;95435.31;5121620;27;20595;-71
2022/10/23 01:31:16;;;;;;;24.42;21.85;;;;;;;10.86;70.16;95440.84;5139249;27;20613;-71
2022/10/23 01:33:47;;;;;;;23.63;21.08;;;;;;;10.88;69.65;95465.31;5139815;27;20207;-71
2022/10/23 01:36:15;;;;;;;26.27;23.55;;;;;;;10.83;69.65;95458.09;5121580;27;20203;-71
2022/10/23 01:38:45;;;;;;;24.95;22.30;;;;;;;10.76;69.62;95468.88;5139632;27;20191;-71
2022/10/23 01:41:14;;;;;;;27.15;23.95;;;;;;;10.73;69.98;95472.34;5139194;27;20568;-72
2022/10/23 01:43:44;;;;;;;26.83;24.02;;;;;;;10.73;70.20;95481.41;5139559;27;20190;-71
2022/10/23 01:46:15;;;;;;;29.15;26.05;;;;;;;10.73;70.23;95478.66;5139247;27;20569;-71
2022/10/23 01:48:44;;;;;;;29.38;26.27;;;;;;;10.77;70.54;95474.06;5139148;27;20203;-71
2022/10/23 01:51:12;;;;;;;27.73;24.80;;;;;;;10.80;70.33;95458.78;5139020;27;20198;-71
2022/10/23 01:53:41;;;;;;;30.15;26.63;;;;;;;10.83;70.39;95466.38;5121078;27;20642;-71
2022/10/23 01:56:12;;;;;;;28.33;25.23;;;;;;;10.85;70.29;95455.78;5119277;27;20223;-71
2022/10/23 01:58:40;;;;;;;27.25;24.35;;;;;;;10.88;70.49;95455.09;5101015;28;20203;-72
2022/10/23 02:01:09;;;;;;;26.23;23.52;;;;;;;10.89;70.70;95445.66;5100649;28;20196;-71
2022/10/23 02:03:37;;;;;;;25.80;23.10;;;;;;;10.91;70.11;95448.88;5101194;28;20207;-71
2022/10/23 02:06:04;;;;;;;25.48;22.70;;;;;;;10.95;70.41;95451.75;5100907;28;20204;-71
2022/10/23 02:08:31;;;;;;;24.98;22.38;;;;;;;10.99;70.28;95458.19;5118216;28;20202;-71
2022/10/23 02:11:02;;;;;;;28.65;22.98;;;;;;;10.97;70.58;95468.78;5099714;28;20195;-72
2022/10/23 02:13:35;;;;;;;25.98;22.10;;;;;;;10.93;70.75;95476.13;5118243;28;20231;-71
2022/10/23 02:16:06;;;;;;;27.27;22.17;;;;;;;10.93;70.92;95467.84;5100519;28;20202;-71
2022/10/23 02:18:38;;;;;;;25.00;22.42;;;;;;;10.92;70.70;95480.03;5099997;28;20195;-71
2022/10/23 02:21:08;;;;;;;24.88;22.27;;;;;;;10.90;71.03;95482.34;5118143;28;20191;-71
2022/10/23 02:23:39;;;;;;;25.27;22.65;;;;;;;10.91;71.34;95489.47;5118127;28;20192;-72
2022/10/23 02:26:08;;;;;;;25.15;22.50;;;;;;;10.91;71.37;95492.22;5100490;28;20623;-72
2022/10/23 02:28:40;;;;;;;26.92;24.02;;;;;;;10.90;71.67;95494.19;5099815;28;20199;-72
2022/10/23 02:31:10;;;;;;;27.90;23.90;;;;;;;10.92;71.56;95497.41;5118006;28;20183;-72
2022/10/23 02:33:38;;;;;;;25.65;23.13;;;;;;;10.95;70.86;95501.44;5100192;28;20224;-72
2022/10/23 02:36:05;;;;;;;25.63;22.92;;;;;;;10.95;70.60;95507.75;5100393;28;20195;-72
2022/10/23 02:38:35;;;;;;;24.85;22.17;;;;;;;10.95;70.82;95506.94;5100059;28;20253;-72
2022/10/23 02:41:12;;;;;;;24.40;21.90;;;;;;;10.97;70.89;95505.47;5099872;28;20199;-72
2022/10/23 02:43:46;;;;;;;24.17;21.60;;;;;;;11.01;70.76;95497.31;5117812;28;20187;-72
2022/10/23 02:46:18;;;;;;;23.70;20.88;;;;;;;11.04;70.62;95497.41;5099838;28;20204;-72
2022/10/23 02:48:50;;;;;;;23.15;20.83;;;;;;;11.06;70.62;95495.09;5100042;28;20210;-71
2022/10/23 02:51:22;;;;;;;25.63;21.08;;;;;;;11.09;70.40;95493.59;5099717;28;20206;-71
2022/10/23 02:53:53;;;;;;;23.85;20.10;;;;;;;11.11;70.80;95493.25;5117471;28;20200;-71
2022/10/23 02:56:23;;;;;;;21.58;19.27;;;;;;;11.10;70.53;95500.72;5117447;28;20198;-71
2022/10/23 02:58:56;;;;;;;20.92;18.83;;;;;;;11.10;70.62;95500.72;5117154;28;20176;-71
2022/10/23 03:01:26;;;;;;;23.15;20.17;;;;;;;11.11;70.79;95499.59;5117059;28;20200;-72
2022/10/23 03:03:57;;;;;;;21.15;18.75;;;;;;;11.10;71.14;95509.00;5117127;28;20207;-72
2022/10/23 03:06:24;;;;;;;21.77;18.98;;;;;;;11.11;70.92;95507.06;5099807;28;20199;-72
2022/10/23 03:08:53;;;;;;;20.20;18.10;;;;;;;11.10;71.08;95509.00;5099546;28;20200;-72
2022/10/23 03:11:20;;;;;;;19.85;17.70;;;;;;;11.14;70.52;95506.38;5117162;28;20198;-72
2022/10/23 03:13:47;;;;;;;18.38;16.55;;;;;;;11.19;69.83;95506.16;5116245;28;20207;-72
2022/10/23 03:16:14;;;;;;;20.63;18.45;;;;;;;11.21;69.92;95499.13;5098975;28;20207;-72
2022/10/23 03:18:41;;;;;;;20.23;18.20;;;;;;;11.21;70.20;95507.41;5116712;28;20527;-72
2022/10/23 03:21:09;;;;;;;21.65;18.50;;;;;;;11.21;70.18;95507.41;5117000;28;20192;-72
2022/10/23 03:23:36;;;;;;;20.50;17.98;;;;;;;11.23;69.63;95499.59;5116956;28;20184;-72
2022/10/23 03:26:02;;;;;;;18.73;15.90;;;;;;;11.29;69.33;95500.13;5108684;28;20195;-72
2022/10/23 03:28:29;;;;;;;15.93;14.23;;;;;;;11.36;68.75;95514.16;5116894;28;20188;-72
2022/10/23 03:30:56;;;;;;;14.63;12.30;;;;;;;11.44;68.13;95510.50;5116893;28;20215;-72
2022/10/23 03:33:23;;;;;;;15.70;13.05;;;;;;;11.54;68.00;95514.72;5098769;28;20631;-72
2022/10/23 03:35:50;;;;;;;22.27;18.42;;;;;;;11.52;68.45;95509.56;5116824;28;20210;-72
2022/10/23 03:38:18;;;;;;;20.77;18.60;;;;;;;11.44;69.73;95516.03;5099183;28;20191;-71
2022/10/23 03:40:44;;;;;;;21.35;17.77;;;;;;;11.36;69.92;95518.88;5098864;28;20564;-71
2022/10/23 03:43:11;;;;;;;18.92;17.02;;;;;;;11.26;70.22;95520.97;5098862;28;20188;-71
2022/10/23 03:45:38;;;;;;;20.17;17.98;;;;;;;11.20;70.60;95525.13;5098615;28;20207;-71
2022/10/23 03:48:05;;;;;;;19.23;17.17;;;;;;;11.16;71.23;95528.94;5116214;28;20208;-72
2022/10/23 03:50:32;;;;;;;19.52;17.50;;;;;;;11.12;71.62;95539.06;5116245;28;20185;-71
2022/10/23 03:52:59;;;;;;;18.67;16.90;;;;;;;11.08;71.95;95533.41;5098585;28;20219;-71
2022/10/23 03:55:27;;;;;;;19.02;16.85;;;;;;;11.04;72.36;95540.78;5108111;28;20228;-72
2022/10/23 03:57:54;;;;;;;19.05;17.05;;;;;;;10.99;72.63;95539.03;5135881;27;20182;-71
2022/10/23 04:00:21;;;;;;;17.80;15.77;;;;;;;10.99;72.32;95547.31;5118833;27;20190;-71
2022/10/23 04:02:48;;;;;;;18.48;16.58;;;;;;;11.01;72.17;95544.22;5136833;27;20183;-71
2022/10/23 04:05:15;;;;;;;23.20;18.08;;;;;;;10.97;71.84;95552.38;5136473;27;20186;-71
2022/10/23 04:07:42;;;;;;;18.20;15.95;;;;;;;10.96;72.14;95552.72;5136386;27;20222;-71
2022/10/23 04:10:11;;;;;;;17.48;15.13;;;;;;;11.00;71.89;95557.22;5118424;27;20207;-71
2022/10/23 04:12:59;;;;;;;11.25;9.77;;;;;;;11.01;71.67;95552.50;5133849;27;20211;-71
2022/10/23 04:15:26;;;;;;;11.73;9.57;;;;;;;11.11;69.90;95563.09;5118265;27;20199;-71
2022/10/23 04:17:53;;;;;;;7.68;6.22;;;;;;;11.37;64.17;95550.91;5136243;27;20179;-72
2022/10/23 04:20:20;;;;;;;7.45;6.13;;;;;;;11.65;61.85;95542.66;5136275;27;20183;-72
2022/10/23 04:22:46;;;;;;;8.90;6.13;;;;;;;11.88;60.59;95541.06;5118652;27;20556;-71
2022/10/23 04:25:13;;;;;;;9.27;5.68;;;;;;;12.09;59.32;95542.81;5136205;27;20673;-72
2022/10/23 04:27:40;;;;;;;8.07;5.43;;;;;;;12.26;58.46;95548.06;5136503;27;20202;-72
2022/10/23 04:30:09;;;;;;;8.68;7.30;;;;;;;12.39;57.74;95544.09;5136006;27;20198;-71
2022/10/23 04:32:36;;;;;;;9.93;6.00;;;;;;;12.49;56.61;95537.22;5136080;27;20187;-71
2022/10/23 04:35:03;;;;;;;7.13;6.38;;;;;;;12.58;56.33;95539.84;5136055;27;20194;-71
2022/10/23 04:37:30;;;;;;;7.75;5.55;;;;;;;12.63;56.62;95536.81;5136202;27;20183;-71
2022/10/23 04:39:56;;;;;;;7.28;5.60;;;;;;;12.70;55.94;95542.53;5118264;27;20664;-71
2022/10/23 04:42:23;;;;;;;7.72;5.70;;;;;;;12.72;56.27;95535.50;5136200;27;20179;-71
2022/10/23 04:44:50;;;;;;;9.13;6.38;;;;;;;12.75;55.67;95540.31;5136323;27;20179;-71
2022/10/23 04:47:18;;;;;;;7.63;6.22;;;;;;;12.77;55.46;95537.97;5118067;28;20206;-72
2022/10/23 04:49:45;;;;;;;6.70;6.05;;;;;;;12.79;55.29;95539.63;5135861;28;20618;-72
2022/10/23 04:52:11;;;;;;;8.50;5.50;;;;;;;12.82;55.10;95544.41;5118021;28;20195;-72
2022/10/23 04:54:38;;;;;;;5.72;5.10;;;;;;;12.86;54.66;95540.59;5117705;28;20245;-72
2022/10/23 04:57:05;;;;;;;6.55;5.78;;;;;;;12.92;53.95;95544.69;5118516;28;20199;-72
2022/10/23 04:59:32;;;;;;;6.00;5.18;;;;;;;12.99;53.17;95544.06;5118010;28;20195;-72
2022/10/23 05:01:59;;;;;;;6.32;5.38;;;;;;;13.04;52.72;95543.03;5136284;28;20193;-72
2022/10/23 05:04:27;;;;;;;7.10;5.47;;;;;;;13.07;53.22;95556.13;5135969;28;20187;-71
2022/10/23 05:06:54;;;;;;;7.78;5.45;;;;;;;13.10;52.96;95553.44;5136233;28;20198;-71
2022/10/23 05:09:21;;;;;;;8.43;6.45;;;;;;;13.10;53.21;95553.44;5117571;28;20207;-71
2022/10/23 05:11:48;;;;;;;10.10;6.25;;;;;;;13.11;53.65;95555.09;5135804;28;20233;-70
2022/10/23 05:14:15;;;;;;;6.45;5.70;;;;;;;13.14;53.65;95554.34;5135809;28;20214;-72
2022/10/23 05:16:44;;;;;;;8.88;5.45;;;;;;;13.23;53.49;95555.00;5135646;28;20202;-69
2022/10/23 05:19:15;;;;;;;8.45;5.72;;;;;;;13.32;53.61;95554.00;5117937;28;20191;-68
2022/10/23 05:21:43;;;;;;;6.53;5.43;;;;;;;13.36;53.30;95560.44;5135965;28;20194;-68
2022/10/23 05:24:11;;;;;;;6.60;5.55;;;;;;;13.42;53.33;95567.31;5135592;28;20187;-67
2022/10/23 05:26:38;;;;;;;9.55;6.15;;;;;;;13.46;53.30;95571.78;5135860;28;20184;-67
2022/10/23 05:29:04;;;;;;;7.95;5.80;;;;;;;13.50;53.18;95574.66;5117768;28;20191;-68
2022/10/23 05:31:33;;;;;;;9.50;5.68;;;;;;;13.52;53.65;95575.09;5117823;28;20183;-68
2022/10/23 05:34:00;;;;;;;7.85;6.07;;;;;;;13.57;54.55;95574.81;5117739;28;20280;-68
2022/10/23 05:36:27;;;;;;;7.40;6.22;;;;;;;13.62;54.71;95579.31;5135617;28;20195;-67
2022/10/23 05:38:55;;;;;;;6.72;6.03;;;;;;;13.64;54.94;95590.81;5135767;28;20183;-67
2022/10/23 05:41:22;;;;;;;6.93;5.68;;;;;;;13.65;55.12;95596.00;5117791;28;20207;-68
2022/10/23 05:43:49;;;;;;;8.52;5.60;;;;;;;13.66;55.44;95599.59;5117940;28;20481;-68
2022/10/23 05:46:15;;;;;;;8.20;6.38;;;;;;;13.66;56.31;95619.78;5118615;27;20191;-68
2022/10/23 05:48:42;;;;;;;6.55;5.82;;;;;;;13.70;57.11;95617.91;5121846;27;20191;-68
2022/10/23 05:51:10;;;;;;;8.43;6.50;;;;;;;13.77;57.51;95617.28;5121497;27;20198;-67
2022/10/23 05:53:37;;;;;;;7.47;6.53;;;;;;;13.80;57.60;95618.50;5139295;27;20203;-68
2022/10/23 05:56:07;;;;;;;6.50;5.85;;;;;;;13.83;57.81;95615.81;5119895;27;20242;-67
2022/10/23 05:58:34;;;;;;;6.63;5.55;;;;;;;13.84;58.20;95622.97;5118339;28;20187;-68
2022/10/23 06:01:05;;;;;;;7.40;6.25;;;;;;;13.85;58.96;95632.91;5100927;28;20200;-67
2022/10/23 06:03:32;;;;;;;7.65;6.15;;;;;;;13.87;59.52;95647.22;5118554;28;20227;-68
2022/10/23 06:05:58;;;;;;;8.60;7.63;;;;;;;13.89;59.69;95644.88;5118614;28;20187;-68
2022/10/23 06:08:25;;;;;;;7.07;5.88;;;;;;;13.93;60.91;95642.19;5100504;28;20199;-68
2022/10/23 06:10:52;;;;;;;7.30;6.60;;;;;;;14.00;60.68;95647.09;5118665;28;20188;-68
2022/10/23 06:13:20;;;;;;;9.82;6.50;;;;;;;14.04;61.29;95648.78;5117881;28;20198;-68
2022/10/23 06:15:47;;;;;;;7.05;6.22;;;;;;;14.08;61.64;95643.31;5100544;28;20204;-68
2022/10/23 06:18:14;;;;;;;8.13;6.00;;;;;;;14.13;62.26;95648.59;5100336;28;20202;-68
2022/10/23 06:20:41;;;;;;;8.10;5.57;;;;;;;14.16;62.50;95650.63;5100340;28;20613;-68
2022/10/23 06:23:08;;;;;;;9.32;6.63;;;;;;;14.19;63.17;95655.47;5100363;28;20632;-68
2022/10/23 06:25:35;;;;;;;10.30;7.55;;;;;;;14.24;63.92;95659.94;5100172;28;20204;-68
2022/10/23 06:28:02;;;;;;;6.40;5.80;;;;;;;14.23;63.82;95652.75;5118075;28;20252;-68
2022/10/23 06:30:30;;;;;;;9.65;5.68;;;;;;;14.24;64.23;95668.25;5117709;28;20184;-68
2022/10/23 06:32:56;;;;;;;6.90;5.45;;;;;;;14.25;63.83;95672.63;5100285;28;20211;-68
2022/10/23 06:35:23;;;;;;;6.93;5.78;;;;;;;14.25;63.36;95670.66;5117905;28;20204;-68
2022/10/23 06:37:50;;;;;;;7.50;6.03;;;;;;;14.27;63.77;95667.50;5117862;28;20192;-68
2022/10/23 06:40:17;;;;;;;6.65;5.95;;;;;;;14.29;65.31;95666.00;5099846;28;20183;-71
2022/10/23 06:42:44;;;;;;;7.88;5.90;;;;;;;14.30;65.53;95673.16;5117847;28;20191;-68
2022/10/23 06:45:10;;;;;;;7.47;5.97;;;;;;;14.32;65.58;95675.56;5100179;28;20253;-68
2022/10/23 06:47:38;;;;;;;7.70;6.10;;;;;;;14.33;65.32;95671.63;5099769;28;20203;-68
2022/10/23 06:50:06;;;;;;;7.95;5.65;;;;;;;14.34;65.29;95673.22;5118082;28;20192;-68
2022/10/23 06:52:33;;;;;;;8.30;5.95;;;;;;;14.38;65.11;95680.50;5117675;28;20187;-68
2022/10/23 06:54:59;;;;;;;6.78;5.78;;;;;;;14.48;65.35;95681.06;5117028;28;20235;-68
2022/10/23 06:57:26;;;;;;;7.22;5.82;;;;;;;14.58;65.02;95686.88;5099293;28;20200;-68
2022/10/23 06:59:53;;;;;;;6.93;6.10;;;;;;;14.71;65.59;95679.25;5099910;28;20502;-68
2022/10/23 07:02:20;;;;;;;8.38;6.22;;;;;;;14.83;65.63;95678.28;5117106;28;20604;-68
2022/10/23 07:04:48;;;;;;;8.40;6.72;;;;;;;14.92;65.42;95674.13;5099293;28;20199;-68
2022/10/23 07:07:15;;;;;;;8.23;6.38;;;;;;;15.00;65.09;95679.81;5099640;28;20202;-68
2022/10/23 07:09:41;;;;;;;6.50;5.65;;;;;;;15.04;64.85;95678.72;5099582;28;20533;-68
2022/10/23 07:12:08;;;;;;;8.35;5.93;;;;;;;15.07;65.07;95674.38;5117275;28;20180;-68
2022/10/23 07:14:35;;;;;;;8.60;6.07;;;;;;;15.13;65.05;95676.50;5099209;28;20208;-68
2022/10/23 07:17:02;;;;;;;6.93;5.70;;;;;;;15.25;64.78;95688.63;5116780;28;20180;-68
2022/10/23 07:19:29;;;;;;;7.50;5.97;;;;;;;15.35;64.26;95676.91;5099297;28;20200;-68
2022/10/23 07:21:57;;;;;;;7.10;6.25;;;;;;;15.45;63.72;95684.63;5099119;28;20202;-68
2022/10/23 07:24:23;;;;;;;6.53;5.78;;;;;;;15.55;63.74;95684.03;5116719;28;20180;-68
2022/10/23 07:26:50;;;;;;;6.10;5.43;;;;;;;15.64;62.79;95678.22;5116646;28;20180;-67
2022/10/23 07:29:17;;;;;;;7.57;6.22;;;;;;;15.73;62.64;95678.81;5098653;28;20199;-67
2022/10/23 07:31:44;;;;;;;7.70;6.25;;;;;;;15.80;62.36;95673.38;5098953;28;20199;-67
2022/10/23 07:34:11;;;;;;;7.93;6.00;;;;;;;15.92;61.70;95682.69;5116437;28;20226;-67
2022/10/23 07:36:38;;;;;;;6.63;5.95;;;;;;;16.02;61.65;95676.50;5117020;28;20187;-67
2022/10/23 07:39:06;;;;;;;6.60;5.50;;;;;;;16.14;60.89;95667.94;5116694;28;20194;-67
2022/10/23 07:41:33;;;;;;;6.97;5.97;;;;;;;16.18;60.07;95671.56;5098862;28;20198;-67
2022/10/23 07:43:59;;;;;;;6.95;6.20;;;;;;;16.12;59.82;95670.28;5098841;28;20184;-67
2022/10/23 07:46:26;;;;;;;8.18;6.28;;;;;;;16.10;59.47;95662.31;5098613;28;20191;-67
2022/10/23 07:48:53;;;;;;;6.60;5.72;;;;;;;16.07;59.15;95665.84;5099184;28;20195;-67
2022/10/23 07:51:20;;;;;;;7.45;5.75;;;;;;;16.18;58.94;95677.13;5098456;28;20196;-67
2022/10/23 07:53:46;;;;;;;7.32;5.95;;;;;;;16.28;58.06;95670.94;5098462;28;20211;-68
2022/10/23 07:56:17;;;;;;;7.28;5.93;;;;;;;16.30;57.78;95673.34;5115905;28;20235;-67
2022/10/23 07:58:44;;;;;;;7.60;6.30;;;;;;;16.44;58.04;95681.91;5098712;28;20203;-67
2022/10/23 08:01:17;;;;;;;9.27;5.80;;;;;;;16.58;57.89;95682.09;5098336;28;20191;-67
2022/10/23 08:03:45;;;;;;;6.88;5.60;;;;;;;16.76;57.32;95679.59;5098473;28;20191;-67
2022/10/23 08:06:12;;;;;;;7.18;6.25;;;;;;;16.90;57.39;95675.38;5098389;28;20299;-67
2022/10/23 08:08:38;;;;;;;6.10;5.50;;;;;;;17.01;56.04;95679.91;5115989;28;20199;-67
2022/10/23 08:11:06;;;;;;;7.35;5.93;;;;;;;17.15;56.49;95675.69;5098015;28;20191;-67
2022/10/23 08:13:34;;;;;;;6.85;5.53;;;;;;;17.22;55.69;95670.19;5116037;28;20192;-67
2022/10/23 08:16:01;;;;;;;6.15;5.55;;;;;;;17.28;55.48;95675.06;5098155;28;20211;-67
2022/10/23 08:18:28;;;;;;;8.27;5.68;;;;;;;17.33;55.31;95676.69;5097802;28;20631;-67
2022/10/23 08:21:00;;;;;;;7.47;5.55;;;;;;;17.41;55.75;95671.97;5098645;28;20191;-67
2022/10/23 08:23:27;;;;;;;8.95;5.88;;;;;;;17.52;56.12;95676.47;5115895;28;20194;-67
2022/10/23 08:25:57;;;;;;;6.82;5.63;;;;;;;17.61;56.01;95676.19;5116008;28;20191;-67
2022/10/23 08:28:24;;;;;;;7.40;5.30;;;;;;;17.74;56.77;95674.69;5115801;28;20188;-67
2022/10/23 08:30:52;;;;;;;6.07;5.47;;;;;;;17.87;56.07;95674.47;5115826;28;20188;-68
2022/10/23 08:33:19;;;;;;;5.50;4.85;;;;;;;17.95;56.18;95679.69;5097988;28;20188;-68
2022/10/23 08:35:45;;;;;;;6.05;5.10;;;;;;;18.06;56.59;95671.41;5097541;28;20223;-67
2022/10/23 08:38:12;;;;;;;4.95;4.43;;;;;;;18.13;55.60;95685.44;5097758;28;20199;-68
2022/10/23 08:40:44;;;;;;;5.35;4.50;;;;;;;18.08;56.01;95673.81;5098039;28;20203;-68
2022/10/23 08:43:16;;;;;;;8.30;4.93;;;;;;;18.02;56.89;95668.59;5115625;28;20183;-68
2022/10/23 08:45:45;;;;;;;5.57;4.80;;;;;;;17.99;57.72;95679.72;5115366;28;20539;-68
2022/10/23 08:48:19;;;;;;;5.25;4.65;;;;;;;17.92;56.50;95669.31;5097696;28;20200;-67
2022/10/23 08:50:48;;;;;;;5.05;4.63;;;;;;;17.87;57.12;95663.28;5115344;28;20195;-67
2022/10/23 08:53:20;;;;;;;6.13;4.65;;;;;;;17.86;57.21;95667.25;5115271;28;20210;-67
2022/10/23 08:55:51;;;;;;;6.40;4.90;;;;;;;17.89;57.99;95660.91;5097172;28;20243;-67
2022/10/23 08:58:24;;;;;;;5.38;4.88;;;;;;;17.96;57.16;95660.97;5097611;28;20206;-67
2022/10/23 09:00:51;;;;;;;5.45;4.43;;;;;;;18.02;57.72;95657.44;5097698;28;20195;-68
2022/10/23 09:03:19;;;;;;;5.38;4.15;;;;;;;18.08;57.10;95663.44;5115629;28;20191;-67
2022/10/23 09:06:00;;;;;;;6.38;4.30;;;;;;;18.16;56.73;95653.16;5115407;28;20271;-68
2022/10/23 09:08:40;;;;;;;5.68;4.53;;;;;;;18.21;56.43;95650.00;5097696;28;20191;-67
2022/10/23 09:11:11;;;;;;;5.25;4.43;;;;;;;18.32;57.33;95664.81;5115385;28;20234;-68
2022/10/23 09:13:50;;;;;;;6.40;4.13;;;;;;;18.38;56.21;95662.47;5097713;28;20216;-67
2022/10/23 09:16:26;;;;;;;5.65;4.40;;;;;;;18.37;55.60;95664.44;5115264;28;20207;-68
2022/10/23 09:18:54;;;;;;;4.45;4.05;;;;;;;18.44;55.83;95650.53;5097586;28;20603;-68
2022/10/23 09:21:26;;;;;;;4.50;4.10;;;;;;;18.51;55.44;95661.75;5100387;28;20196;-68
2022/10/23 09:23:52;;;;;;;4.53;4.13;;;;;;;18.54;55.13;95665.75;5101460;28;20650;-67
2022/10/23 09:26:19;;;;;;;4.00;3.65;;;;;;;18.56;55.33;95654.22;5119282;28;20191;-67
2022/10/23 09:28:49;;;;;;;4.38;3.67;;;;;;;18.68;54.15;95651.06;5119372;28;20196;-68
2022/10/23 09:31:16;;;;;;;4.47;4.07;;;;;;;18.73;54.91;95657.09;5119442;28;20195;-67
2022/10/23 09:33:55;;;;;;;4.78;3.30;;;;;;;18.75;54.95;95648.34;5101326;28;20603;-67
2022/10/23 09:36:24;;;;;;;4.10;3.67;;;;;;;18.83;54.04;95646.38;5119022;28;20199;-67
2022/10/23 09:38:53;;;;;;;5.97;3.80;;;;;;;18.92;54.56;95653.22;5119316;28;20245;-67
2022/10/23 09:41:22;;;;;;;4.40;3.47;;;;;;;19.05;53.84;95647.25;5100873;28;20196;-68
2022/10/23 09:44:00;;;;;;;4.97;4.47;;;;;;;19.06;54.09;95660.84;5101260;28;20194;-68
2022/10/23 09:46:37;;;;;;;3.92;3.42;;;;;;;19.13;52.55;95651.69;5100885;28;20658;-67
2022/10/23 09:49:06;;;;;;;4.28;3.50;;;;;;;19.15;51.64;95652.91;5118581;28;20198;-68
2022/10/23 09:51:33;;;;;;;5.80;3.47;;;;;;;19.15;52.23;95652.91;5100843;28;20191;-68
2022/10/23 09:54:00;;;;;;;4.00;3.60;;;;;;;19.18;52.37;95648.53;5118650;28;20208;-68
2022/10/23 09:56:29;;;;;;;3.70;3.40;;;;;;;19.21;54.10;95640.13;5100717;28;20635;-67
2022/10/23 09:58:58;;;;;;;4.82;4.38;;;;;;;19.32;52.28;95636.56;5084367;28;20195;-67
2022/10/23 10:01:25;;;;;;;4.47;3.70;;;;;;;19.45;52.79;95635.78;5118680;28;20184;-68
2022/10/23 10:03:53;;;;;;;3.88;3.47;;;;;;;19.48;50.72;95629.41;5100420;28;20195;-68
2022/10/23 10:06:27;;;;;;;3.15;2.83;;;;;;;19.56;50.17;95633.00;5100674;28;20524;-67
2022/10/23 10:08:55;;;;;;;3.50;3.20;;;;;;;19.60;51.11;95633.00;5118547;28;20191;-68
2022/10/23 10:11:27;;;;;;;3.20;3.00;;;;;;;19.68;49.65;95632.66;5101268;28;20184;-68
2022/10/23 10:14:24;;;;;;;4.40;3.25;;;;;;;19.64;49.39;95631.84;5100218;28;20286;-67
2022/10/23 10:16:55;;;;;;;4.80;3.67;;;;;;;19.69;49.00;95627.88;5118252;28;20220;-67
2022/10/23 10:19:29;;;;;;;3.17;2.88;;;;;;;19.74;48.44;95623.88;5100564;28;20529;-67
2022/10/23 10:22:07;;;;;;;4.75;3.00;;;;;;;19.70;48.64;95621.88;5117929;28;20210;-67
2022/10/23 10:24:36;;;;;;;3.20;2.90;;;;;;;19.75;48.64;95620.66;5118244;28;20241;-67
2022/10/23 10:27:08;;;;;;;3.70;3.40;;;;;;;19.80;48.01;95616.69;5118197;28;20203;-67
2022/10/23 10:29:48;;;;;;;3.42;3.00;;;;;;;19.87;48.06;95609.09;5118195;28;20195;-67
2022/10/23 10:32:23;;;;;;;3.40;3.10;;;;;;;19.98;47.72;95617.47;5099337;28;20187;-68
2022/10/23 10:34:54;;;;;;;2.30;2.10;;;;;;;19.96;45.08;95603.88;5117975;28;20183;-67
2022/10/23 10:37:29;;;;;;;4.20;3.65;;;;;;;19.95;45.06;95613.47;5100324;28;20203;-67
2022/10/23 10:40:00;;;;;;;4.45;3.58;;;;;;;20.02;45.41;95614.69;5118026;28;20258;-68
2022/10/23 10:42:37;;;;;;;3.58;2.60;;;;;;;20.03;45.15;95607.88;5099919;28;20199;-67
2022/10/23 10:45:15;;;;;;;2.65;2.45;;;;;;;20.01;45.34;95613.06;5100300;28;20199;-67
2022/10/23 10:47:50;;;;;;;7.22;2.90;;;;;;;20.01;46.38;95594.28;5117734;28;20192;-68
2022/10/23 10:50:19;;;;;;;3.60;3.20;;;;;;;20.08;46.37;95597.06;5099763;28;20607;-67
2022/10/23 10:52:52;;;;;;;3.25;2.95;;;;;;;20.18;45.31;95587.03;5099779;28;20206;-67
2022/10/23 10:55:24;;;;;;;3.50;3.20;;;;;;;20.25;45.60;95589.84;5111497;27;20291;-67
2022/10/23 10:57:55;;;;;;;3.90;2.78;;;;;;;20.25;43.48;95584.22;5120124;27;20191;-67
2022/10/23 11:00:23;;;;;;;3.08;2.67;;;;;;;20.25;44.57;95587.03;5138026;27;20187;-67
2022/10/23 11:02:54;;;;;;;3.42;2.75;;;;;;;20.26;43.83;95582.22;5138081;27;20187;-67
2022/10/23 11:05:27;;;;;;;2.25;2.13;;;;;;;20.23;43.06;95583.84;5120172;27;20198;-67
2022/10/23 11:07:59;;;;;;;3.20;2.97;;;;;;;20.34;43.80;95586.63;5138059;27;20180;-68
2022/10/23 11:10:28;;;;;;;3.72;3.42;;;;;;;20.32;44.80;95581.41;5119762;27;20194;-67
2022/10/23 11:12:54;;;;;;;3.47;3.10;;;;;;;20.35;44.83;95572.19;5119846;27;20626;-68
2022/10/23 11:15:26;;;;;;;4.35;3.85;;;;;;;20.38;43.15;95573.41;5119607;27;20214;-67
2022/10/23 11:17:57;;;;;;;5.97;3.58;;;;;;;20.32;44.48;95569.41;5137764;27;20206;-67
2022/10/23 11:20:37;;;;;;;5.30;3.85;;;;;;;20.39;44.38;95572.19;5137661;27;20184;-67
2022/10/23 11:23:12;;;;;;;4.20;3.85;;;;;;;20.31;44.97;95568.63;5137605;27;20215;-67
2022/10/23 11:25:48;;;;;;;5.55;3.30;;;;;;;20.39;45.38;95567.38;5119509;27;20187;-67
2022/10/23 11:28:23;;;;;;;4.07;3.67;;;;;;;20.44;45.56;95567.00;5119479;27;20202;-68
2022/10/23 11:31:03;;;;;;;4.05;3.08;;;;;;;20.48;45.66;95558.56;5137489;27;20200;-68
2022/10/23 11:33:59;;;;;;;2.90;2.70;;;;;;;20.46;44.52;95557.38;5137599;27;20195;-68
2022/10/23 11:36:41;;;;;;;4.50;3.40;;;;;;;20.44;44.98;95564.19;5119631;27;20229;-68